Time;durP1;ratioP1;P1;durP2;ratioP2;P2;SDS_P1;SDS_P2;PMS_P1;PMS_P2;Temp;Humidity;BMP_temperature;BMP_pressure;BME280_temperature;BME280_humidity;BME280_pressure;Samples;Min_cycle;Max_cycle;Signal;HPM_P1;HPM_P2
2022/06/16 00:00:14;;;;;;;8.38;6.50;;;;;;;18.42;62.75;95085.84;4202107;28;20051;-57
2022/06/16 00:02:16;;;;;;;9.15;6.35;;;;;;;18.47;62.77;95090.56;4218098;28;20088;-57
2022/06/16 00:04:18;;;;;;;7.78;6.75;;;;;;;18.52;62.28;95084.66;4208811;28;20044;-55
2022/06/16 00:06:20;;;;;;;9.88;6.80;;;;;;;18.56;62.11;95084.09;4215672;28;20512;-54
2022/06/16 00:08:21;;;;;;;10.57;6.80;;;;;;;18.60;61.95;95087.94;4215850;28;20639;-55
2022/06/16 00:10:24;;;;;;;12.65;6.68;;;;;;;18.62;61.87;95080.59;4207826;28;20516;-56
2022/06/16 00:12:25;;;;;;;10.00;6.07;;;;;;;18.58;61.81;95083.84;4208306;28;20055;-55
2022/06/16 00:14:29;;;;;;;8.45;5.95;;;;;;;18.49;62.33;95080.56;4204791;28;20052;-56
2022/06/16 00:16:32;;;;;;;10.82;6.15;;;;;;;18.34;62.91;95080.72;4205927;28;20040;-55
2022/06/16 00:18:34;;;;;;;13.13;6.28;;;;;;;18.31;63.14;95077.66;4208216;28;20441;-57
2022/06/16 00:20:35;;;;;;;11.10;6.75;;;;;;;18.32;62.94;95087.22;4203509;28;20637;-56
2022/06/16 00:22:38;;;;;;;8.57;6.25;;;;;;;18.31;62.94;95078.47;4216681;28;20404;-54
2022/06/16 00:24:39;;;;;;;9.52;6.22;;;;;;;18.13;63.56;95080.81;4213963;28;20048;-55
2022/06/16 00:26:41;;;;;;;7.90;6.25;;;;;;;18.02;63.84;95082.19;4198434;28;20413;-55
2022/06/16 00:28:43;;;;;;;8.27;5.93;;;;;;;17.83;64.25;95080.25;4207945;28;20131;-55
2022/06/16 00:30:45;;;;;;;10.77;6.95;;;;;;;17.60;65.02;95084.75;4206265;28;20423;-57
2022/06/16 00:32:47;;;;;;;8.30;6.38;;;;;;;17.40;65.65;95089.91;4208024;28;20112;-56
2022/06/16 00:34:48;;;;;;;9.88;6.97;;;;;;;17.41;66.21;95080.13;4221702;28;20132;-54
2022/06/16 00:36:51;;;;;;;11.73;6.00;;;;;;;17.48;66.13;95088.13;4196843;28;20055;-55
2022/06/16 00:38:53;;;;;;;10.00;6.25;;;;;;;17.60;65.61;95084.75;4215208;28;20043;-56
2022/06/16 00:40:55;;;;;;;13.13;6.22;;;;;;;17.77;64.88;95087.13;4215738;28;20040;-57
2022/06/16 00:42:56;;;;;;;8.88;6.28;;;;;;;17.90;64.41;95087.22;4207351;28;20064;-55
2022/06/16 00:44:58;;;;;;;13.43;6.13;;;;;;;17.99;64.24;95078.09;4217027;28;20291;-54
2022/06/16 00:47:00;;;;;;;7.13;6.05;;;;;;;18.09;63.77;95074.28;4216881;28;20047;-56
2022/06/16 00:49:05;;;;;;;7.07;6.38;;;;;;;18.13;63.63;95080.81;4211323;28;20044;-56
2022/06/16 00:51:22;;;;;;;7.10;6.07;;;;;;;18.21;63.42;95078.81;4210496;28;20052;-55
2022/06/16 00:53:25;;;;;;;8.88;6.53;;;;;;;18.29;62.98;95069.88;4219315;28;20183;-58
2022/06/16 00:55:27;;;;;;;11.32;6.18;;;;;;;18.33;63.06;95079.09;4210755;28;20508;-55
2022/06/16 00:57:36;;;;;;;7.85;6.10;;;;;;;18.34;62.87;95071.94;4192617;28;20497;-54
2022/06/16 00:59:38;;;;;;;10.93;6.65;;;;;;;18.33;63.02;95068.47;4197923;28;20470;-56
2022/06/16 01:01:41;;;;;;;9.52;6.57;;;;;;;18.34;63.04;95071.94;4212319;28;20101;-55
2022/06/16 01:06:26;;;;;;;8.00;6.55;;;;;;;18.38;62.79;95070.53;4209766;28;20105;-55
2022/06/16 01:08:28;;;;;;;8.25;5.97;;;;;;;18.38;62.83;95071.34;4211746;28;20177;-56
2022/06/16 01:10:37;;;;;;;8.48;6.40;;;;;;;18.38;62.88;95068.69;4207350;28;20070;-56
2022/06/16 01:15:33;;;;;;;8.60;6.20;;;;;;;18.22;62.95;95074.34;4211347;28;20405;-55
2022/06/16 01:17:41;;;;;;;10.43;6.80;;;;;;;17.85;64.27;95063.13;4210910;28;20113;-56
2022/06/16 01:20:03;;;;;;;10.77;6.32;;;;;;;17.70;64.62;95065.88;4210007;28;20435;-56
2022/06/16 01:22:15;;;;;;;9.55;7.10;;;;;;;17.63;64.96;95069.50;4210192;28;20577;-56
2022/06/16 01:24:38;;;;;;;8.55;6.82;;;;;;;17.58;65.42;95068.25;4206526;28;20048;-54
2022/06/16 01:27:01;;;;;;;7.05;5.93;;;;;;;17.61;65.55;95065.19;4200369;28;20040;-55
2022/06/16 01:29:26;;;;;;;7.88;7.05;;;;;;;17.70;65.28;95054.44;4199885;28;20421;-55
2022/06/16 01:31:46;;;;;;;;;;;;;;;17.80;65.08;95063.69;4222067;28;20075;-54
2022/06/16 01:34:10;;;;;;;8.52;6.60;;;;;;;17.87;64.69;95071.69;4205483;28;19935;-52
2022/06/16 01:36:33;;;;;;;;;;;;;;;17.88;64.45;95064.59;4206157;28;20401;-53
2022/06/16 01:38:48;;;;;;;9.50;6.80;;;;;;;17.94;64.46;95056.69;4205863;28;19920;-58
2022/06/16 01:41:38;;;;;;;13.25;6.38;;;;;;;17.97;64.13;95053.63;4208149;28;20052;-56
2022/06/16 01:44:06;;;;;;;7.85;6.75;;;;;;;18.00;64.17;95055.91;4190757;28;20056;-55
2022/06/16 01:46:23;;;;;;;8.82;6.45;;;;;;;18.04;63.73;95051.00;4209570;28;20541;-56
2022/06/16 01:48:27;;;;;;;9.98;6.18;;;;;;;18.06;63.79;95048.16;4215352;28;20092;-56
2022/06/16 01:50:34;;;;;;;9.10;6.68;;;;;;;18.07;63.51;95049.78;4208966;28;20077;-54
2022/06/16 01:52:49;;;;;;;9.88;6.97;;;;;;;18.04;63.62;95048.34;4207739;28;20109;-55
2022/06/16 01:54:55;;;;;;;10.65;7.30;;;;;;;18.07;63.29;95041.84;4205333;28;20052;-57
2022/06/16 01:57:04;;;;;;;10.70;6.90;;;;;;;18.04;63.15;95042.25;4200706;28;20480;-57
2022/06/16 01:59:11;;;;;;;8.32;6.82;;;;;;;18.03;63.51;95045.91;4209273;28;20485;-56
2022/06/16 02:01:17;;;;;;;7.70;6.00;;;;;;;17.98;63.74;95044.66;4204955;28;20048;-55
2022/06/16 02:03:22;;;;;;;12.48;6.80;;;;;;;17.92;63.71;95048.09;4222347;28;20052;-54
2022/06/16 02:05:39;;;;;;;8.93;6.25;;;;;;;17.90;63.73;95050.13;4210802;28;20055;-54
2022/06/16 02:07:49;;;;;;;9.13;6.50;;;;;;;17.42;63.96;95047.34;4199402;28;20141;-56
2022/06/16 02:09:55;;;;;;;8.13;6.38;;;;;;;16.83;65.98;95059.06;4205924;28;20053;-56
2022/06/16 02:12:00;;;;;;;8.57;6.07;;;;;;;16.49;67.35;95052.56;4209324;28;20422;-56
2022/06/16 02:14:14;;;;;;;10.48;6.43;;;;;;;16.37;68.06;95052.25;4216292;28;20074;-58
2022/06/16 02:16:19;;;;;;;9.95;6.30;;;;;;;16.54;67.98;95052.00;4204272;28;20052;-56
2022/06/16 02:18:28;;;;;;;11.75;6.28;;;;;;;16.69;67.40;95051.97;4206275;28;20097;-56
2022/06/16 02:20:39;;;;;;;12.00;6.72;;;;;;;16.85;66.88;95051.75;4208907;28;20064;-58
2022/06/16 02:22:41;;;;;;;11.65;6.47;;;;;;;16.99;66.30;95058.81;4208818;28;20048;-56
2022/06/16 02:24:43;;;;;;;7.13;6.07;;;;;;;17.12;65.46;95059.94;4209525;28;20048;-55
2022/06/16 02:26:45;;;;;;;8.25;6.30;;;;;;;17.20;65.02;95052.66;4221047;28;20514;-57
2022/06/16 02:28:51;;;;;;;8.93;6.22;;;;;;;17.26;64.58;95056.38;4203868;28;20040;-56
2022/06/16 02:31:01;;;;;;;13.63;6.40;;;;;;;17.27;64.43;95059.84;4207202;28;20116;-54
2022/06/16 02:33:19;;;;;;;10.77;6.50;;;;;;;17.16;64.87;95064.69;4208873;28;20097;-56
2022/06/16 02:35:43;;;;;;;7.82;6.10;;;;;;;17.15;65.07;95065.66;4213262;28;20052;-56
2022/06/16 02:38:12;;;;;;;9.02;6.13;;;;;;;17.10;65.31;95064.59;4211226;28;20110;-53
2022/06/16 02:40:37;;;;;;;11.38;6.82;;;;;;;17.04;65.49;95066.19;4207640;28;20613;-56
2022/06/16 02:42:48;;;;;;;11.88;6.28;;;;;;;17.08;65.53;95075.38;4199652;28;20113;-54
2022/06/16 02:45:01;;;;;;;10.57;7.22;;;;;;;17.10;65.37;95078.66;4201210;28;20056;-57
2022/06/16 02:47:08;;;;;;;13.63;7.03;;;;;;;17.11;65.62;95080.28;4203270;28;20393;-56
2022/06/16 02:49:29;;;;;;;11.75;7.15;;;;;;;17.16;65.28;95079.72;4193118;28;20048;-54
2022/06/16 02:51:43;;;;;;;8.00;6.47;;;;;;;17.22;65.15;95078.97;4201746;28;20044;-54
2022/06/16 02:55:57;;;;;;;8.82;6.30;;;;;;;17.02;65.74;95084.09;4208170;28;20430;-54
2022/06/16 02:58:00;;;;;;;8.50;6.38;;;;;;;16.96;65.97;95080.34;4205900;28;20051;-56
2022/06/16 03:00:09;;;;;;;10.18;6.75;;;;;;;16.59;66.89;95078.72;4207376;28;20052;-56
2022/06/16 03:02:15;;;;;;;9.73;6.30;;;;;;;16.62;67.31;95081.00;4208168;28;20056;-56
2022/06/16 03:04:18;;;;;;;7.75;6.78;;;;;;;16.71;67.45;95076.41;4207812;28;20044;-55
2022/06/16 03:06:20;;;;;;;9.50;6.70;;;;;;;16.81;66.85;95086.72;4208631;28;20063;-53
2022/06/16 03:08:23;;;;;;;10.85;6.28;;;;;;;16.88;66.45;95080.47;4211361;28;20256;-54
2022/06/16 03:12:45;;;;;;;6.70;6.05;;;;;;;17.03;65.88;95083.06;4209388;28;20052;-54
2022/06/16 03:14:47;;;;;;;7.88;6.25;;;;;;;17.06;65.40;95085.34;4206639;28;20116;-55
2022/06/16 03:16:49;;;;;;;9.48;6.40;;;;;;;17.08;65.33;95080.69;4196595;28;20089;-56
2022/06/16 03:18:51;;;;;;;8.35;6.20;;;;;;;17.08;65.51;95088.63;4209282;28;20084;-52
2022/06/16 03:20:53;;;;;;;9.20;6.35;;;;;;;17.07;65.39;95081.69;4209018;28;20055;-54
2022/06/16 03:22:55;;;;;;;8.18;6.28;;;;;;;17.09;65.19;95082.31;4197699;28;20049;-55
2022/06/16 03:24:56;;;;;;;10.15;6.63;;;;;;;17.16;65.03;95083.22;4208882;28;20581;-55
2022/06/16 03:26:58;;;;;;;9.55;6.50;;;;;;;17.14;64.94;95087.88;4210507;28;20426;-54
2022/06/16 03:29:00;;;;;;;7.68;6.18;;;;;;;17.16;65.19;95080.56;4196245;28;20056;-51
2022/06/16 03:31:02;;;;;;;7.85;5.85;;;;;;;17.23;64.79;95085.91;4204286;28;20056;-55
2022/06/16 03:33:06;;;;;;;10.15;6.57;;;;;;;17.26;64.74;95082.06;4197936;28;20125;-53
2022/06/16 03:35:08;;;;;;;6.70;5.97;;;;;;;17.29;64.58;95085.13;4208989;28;20051;-55
2022/06/16 03:37:09;;;;;;;8.02;6.03;;;;;;;17.34;64.36;95077.44;4210910;28;20565;-54
2022/06/16 03:39:11;;;;;;;11.02;6.72;;;;;;;17.39;64.04;95077.66;4209227;28;20052;-55
2022/06/16 03:41:13;;;;;;;10.23;7.18;;;;;;;17.39;64.20;95071.56;4209738;28;20138;-56
2022/06/16 03:43:15;;;;;;;10.68;7.32;;;;;;;17.40;64.22;95073.19;4204475;28;20056;-55
2022/06/16 03:45:17;;;;;;;8.93;7.05;;;;;;;17.41;64.17;95082.78;4195835;28;20052;-55
2022/06/16 03:47:19;;;;;;;10.02;7.20;;;;;;;17.42;64.23;95079.09;4206080;28;20097;-56
2022/06/16 03:49:20;;;;;;;10.07;6.53;;;;;;;17.45;64.16;95070.00;4208021;28;20063;-55
2022/06/16 03:51:22;;;;;;;10.88;7.15;;;;;;;17.46;64.07;95075.06;4208048;28;20113;-54
2022/06/16 03:53:24;;;;;;;10.10;7.72;;;;;;;17.54;64.12;95074.94;4208754;28;20048;-58
2022/06/16 03:55:26;;;;;;;10.00;7.28;;;;;;;17.60;63.97;95070.69;4218839;28;20085;-55
2022/06/16 03:57:28;;;;;;;8.93;6.78;;;;;;;17.65;63.75;95070.13;4205398;28;20112;-55
2022/06/16 03:59:29;;;;;;;13.77;6.70;;;;;;;17.71;63.53;95077.31;4206946;28;20371;-54
2022/06/16 04:01:31;;;;;;;11.50;7.68;;;;;;;17.72;63.62;95084.22;4207425;28;20051;-55
2022/06/16 04:05:54;;;;;;;11.90;7.30;;;;;;;17.73;63.38;95077.94;4197372;28;20131;-55
2022/06/16 04:07:56;;;;;;;11.43;6.90;;;;;;;17.80;63.14;95076.94;4208183;28;20052;-55
2022/06/16 04:09:58;;;;;;;9.38;6.78;;;;;;;17.87;62.92;95077.00;4194917;28;20077;-55
2022/06/16 04:11:59;;;;;;;10.07;7.55;;;;;;;17.93;62.98;95081.53;4203705;28;20055;-53
2022/06/16 04:14:10;;;;;;;10.45;7.43;;;;;;;18.04;62.76;95071.41;4193183;28;20524;-54
2022/06/16 04:16:11;;;;;;;10.43;7.50;;;;;;;18.08;62.35;95077.94;4192809;28;20052;-54
2022/06/16 04:18:13;;;;;;;13.32;7.93;;;;;;;18.05;62.10;95083.63;4209540;28;20128;-55
2022/06/16 04:20:15;;;;;;;15.57;7.65;;;;;;;17.92;62.68;95079.91;4210031;28;20051;-54
2022/06/16 04:22:18;;;;;;;12.45;7.90;;;;;;;17.92;63.06;95071.97;4208185;28;20473;-53
2022/06/16 04:24:22;;;;;;;10.55;7.60;;;;;;;17.99;62.94;95085.25;4207960;28;20467;-55
2022/06/16 04:26:24;;;;;;;11.13;7.05;;;;;;;18.13;62.99;95080.81;4197869;28;20424;-55
2022/06/16 04:28:26;;;;;;;11.32;7.43;;;;;;;18.27;62.46;95084.38;4209466;28;20497;-56
2022/06/16 04:30:28;;;;;;;12.75;7.32;;;;;;;18.39;61.95;95070.34;4200061;28;20044;-54
2022/06/16 04:32:30;;;;;;;14.07;7.82;;;;;;;18.37;61.90;95077.69;4211278;28;20054;-55
2022/06/16 04:34:31;;;;;;;9.38;6.97;;;;;;;18.31;61.96;95078.47;4211354;28;20052;-54
2022/06/16 04:36:33;;;;;;;10.60;7.15;;;;;;;18.20;62.19;95079.03;4196308;28;20067;-56
2022/06/16 04:38:35;;;;;;;10.07;7.03;;;;;;;18.11;62.51;95077.53;4208125;28;20051;-54
2022/06/16 04:40:37;;;;;;;10.75;7.10;;;;;;;18.17;62.80;95079.41;4206791;28;20454;-54
2022/06/16 04:42:38;;;;;;;10.70;7.80;;;;;;;18.22;62.54;95079.66;4199703;28;20040;-54
2022/06/16 04:44:40;;;;;;;11.82;7.68;;;;;;;17.90;62.96;95081.94;4195896;28;20076;-55
2022/06/16 04:46:42;;;;;;;9.70;7.80;;;;;;;17.49;64.31;95082.66;4205122;28;20434;-55
2022/06/16 04:48:44;;;;;;;10.05;7.13;;;;;;;17.48;64.86;95082.84;4193298;28;20471;-54
2022/06/16 04:50:47;;;;;;;9.63;7.78;;;;;;;17.57;64.48;95090.47;4206432;28;20052;-56
2022/06/16 04:52:49;;;;;;;10.10;7.95;;;;;;;17.76;63.98;95088.13;4208229;28;20056;-56
2022/06/16 04:54:51;;;;;;;12.95;7.82;;;;;;;17.94;63.57;95085.84;4207847;28;20110;-54
2022/06/16 04:57:01;;;;;;;8.57;7.47;;;;;;;18.16;62.86;95085.75;4192948;28;20457;-57
2022/06/16 04:59:02;;;;;;;10.00;7.60;;;;;;;18.32;62.52;95084.59;4197504;28;20052;-56
2022/06/16 05:01:07;;;;;;;11.25;8.25;;;;;;;18.49;61.88;95090.38;4206288;28;20060;-55
2022/06/16 05:03:25;;;;;;;10.13;7.68;;;;;;;18.64;61.59;95085.72;4207640;28;20048;-56
2022/06/16 05:05:28;;;;;;;8.85;7.85;;;;;;;18.76;61.24;95081.47;4207820;28;20063;-58
2022/06/16 05:07:30;;;;;;;9.98;7.88;;;;;;;18.85;60.59;95079.47;4207867;28;20067;-52
2022/06/16 05:09:31;;;;;;;16.02;7.97;;;;;;;18.90;60.83;95085.00;4202920;28;20091;-55
2022/06/16 05:11:33;;;;;;;10.25;7.90;;;;;;;18.97;60.44;95083.19;4203222;28;20047;-55
2022/06/16 05:13:35;;;;;;;12.18;8.77;;;;;;;18.96;60.59;95081.53;4222482;28;20060;-54
2022/06/16 05:15:37;;;;;;;11.35;8.30;;;;;;;18.95;60.59;95073.78;4207882;28;20466;-57
2022/06/16 05:17:38;;;;;;;13.68;8.50;;;;;;;18.98;60.59;95076.03;4217794;28;20172;-55
2022/06/16 05:19:40;;;;;;;15.73;8.57;;;;;;;19.00;60.79;95076.66;4208323;28;20087;-51
2022/06/16 05:21:42;;;;;;;17.27;9.27;;;;;;;18.98;60.58;95076.03;4214278;28;20147;-55
2022/06/16 05:23:45;;;;;;;17.52;8.98;;;;;;;19.05;60.75;95078.69;4207484;28;20044;-54
2022/06/16 05:25:47;;;;;;;16.02;9.45;;;;;;;19.06;60.95;95083.81;4217454;28;20069;-54
2022/06/16 05:27:49;;;;;;;10.35;8.75;;;;;;;19.03;61.23;95082.34;4209937;28;20051;-53
2022/06/16 05:29:50;;;;;;;13.07;9.43;;;;;;;19.06;61.02;95085.63;4208534;28;20059;-54
2022/06/16 05:31:52;;;;;;;13.48;10.13;;;;;;;19.12;61.04;95087.47;4201686;28;20052;-56
2022/06/16 05:34:00;;;;;;;12.60;10.13;;;;;;;19.13;60.85;95083.81;4218292;28;20047;-55
2022/06/16 05:36:08;;;;;;;15.00;10.15;;;;;;;19.19;60.76;95081.19;4203775;28;20048;-56
2022/06/16 05:38:10;;;;;;;13.32;10.75;;;;;;;19.31;60.67;95083.22;4214846;28;20051;-51
2022/06/16 05:40:12;;;;;;;17.50;9.93;;;;;;;19.38;60.44;95084.88;4210071;28;20048;-55
2022/06/16 05:42:14;;;;;;;14.23;10.07;;;;;;;19.32;60.70;95095.50;4207845;28;20048;-55
2022/06/16 05:44:15;;;;;;;17.90;10.57;;;;;;;19.06;61.37;95093.59;4207642;28;20194;-55
2022/06/16 05:46:20;;;;;;;19.38;10.40;;;;;;;18.87;62.14;95095.22;4204899;28;20154;-54
2022/06/16 05:48:22;;;;;;;15.07;10.60;;;;;;;18.65;62.88;95097.16;4210928;28;20064;-55
2022/06/16 05:50:25;;;;;;;11.98;10.05;;;;;;;18.58;63.14;95094.47;4211805;28;20051;-55
2022/06/16 05:52:27;;;;;;;19.30;10.73;;;;;;;18.35;64.10;95097.47;4212636;28;20115;-54
2022/06/16 05:54:29;;;;;;;13.35;11.25;;;;;;;18.39;64.24;95088.91;4213674;28;20052;-55
2022/06/16 05:56:30;;;;;;;16.30;11.38;;;;;;;18.59;64.07;95091.63;4208590;28;20156;-55
2022/06/16 05:58:32;;;;;;;22.27;13.45;;;;;;;18.54;64.07;95095.88;4205926;28;20048;-56
2022/06/16 06:00:34;;;;;;;22.98;13.18;;;;;;;18.60;64.00;95097.75;4208321;28;20040;-56
2022/06/16 06:02:36;;;;;;;15.90;12.40;;;;;;;18.72;64.17;95095.34;4203765;28;20520;-55
2022/06/16 06:04:38;;;;;;;16.25;12.32;;;;;;;18.98;63.74;95091.97;4204264;28;20500;-54
2022/06/16 06:06:39;;;;;;;16.42;12.23;;;;;;;19.12;63.12;95090.97;4204501;28;20044;-53
2022/06/16 06:18:04;;;;;;;19.52;14.38;;;;;;;19.67;63.02;95080.16;4200669;28;20051;-54
2022/06/16 06:20:07;;;;;;;19.45;13.32;;;;;;;19.94;62.43;95086.28;4209909;28;20052;-54
2022/06/16 06:22:13;;;;;;;17.38;13.13;;;;;;;20.19;61.98;95088.25;4209560;28;20048;-57
2022/06/16 06:24:16;;;;;;;24.75;13.38;;;;;;;20.38;61.30;95094.53;4199741;28;20076;-55
2022/06/16 06:26:18;;;;;;;18.52;14.32;;;;;;;20.52;60.82;95088.16;4210895;28;20055;-58
2022/06/16 06:28:21;;;;;;;21.75;14.40;;;;;;;20.59;60.21;95090.81;4208264;28;20055;-55
2022/06/16 06:30:28;;;;;;;21.45;15.00;;;;;;;20.56;60.11;95088.53;4206348;28;20044;-54
2022/06/16 06:32:30;;;;;;;24.00;13.73;;;;;;;20.58;60.34;95089.97;4200866;28;20060;-55
2022/06/16 06:34:32;;;;;;;18.90;14.15;;;;;;;20.64;60.55;95089.13;4203592;28;20132;-54
2022/06/16 06:36:33;;;;;;;21.35;14.02;;;;;;;20.71;60.51;95094.41;4203664;28;20104;-54
2022/06/16 06:38:35;;;;;;;21.13;14.05;;;;;;;20.73;60.61;95096.88;4207545;28;20048;-54
2022/06/16 06:40:39;;;;;;;24.33;15.10;;;;;;;20.32;61.32;95101.50;4206882;28;20040;-54
2022/06/16 06:42:40;;;;;;;17.65;13.63;;;;;;;20.31;62.37;95097.22;4209632;28;20059;-56
2022/06/16 06:44:43;;;;;;;21.92;14.77;;;;;;;20.51;62.07;95104.31;4212744;28;20097;-53
2022/06/16 06:46:44;;;;;;;23.27;15.77;;;;;;;20.65;61.24;95100.63;4208753;28;20215;-55
2022/06/16 06:48:46;;;;;;;24.33;18.30;;;;;;;20.86;60.70;95096.81;4205385;28;20048;-53
2022/06/16 06:50:48;;;;;;;24.67;15.57;;;;;;;20.92;60.14;95092.47;4194640;28;20149;-56
2022/06/16 06:52:50;;;;;;;21.65;16.00;;;;;;;20.75;60.73;95092.97;4200787;28;20426;-53
2022/06/16 06:54:52;;;;;;;20.55;14.77;;;;;;;20.79;60.63;95094.19;4213345;28;20074;-56
2022/06/16 06:56:54;;;;;;;26.63;15.38;;;;;;;20.72;61.00;95090.75;4207973;28;20108;-55
2022/06/16 06:58:58;;;;;;;21.92;15.10;;;;;;;20.84;60.88;95094.38;4204807;28;20048;-55
2022/06/16 07:01:01;;;;;;;23.25;15.05;;;;;;;20.67;61.66;95093.22;4209136;28;20086;-54
2022/06/16 07:03:03;;;;;;;21.63;16.48;;;;;;;20.55;61.31;95090.38;4208863;28;20051;-54
2022/06/16 07:05:05;;;;;;;24.55;15.55;;;;;;;20.56;61.69;95092.00;4203513;28;20160;-55
2022/06/16 07:07:13;;;;;;;20.52;15.57;;;;;;;20.48;61.80;95084.28;4198311;28;20064;-56
2022/06/16 07:09:17;;;;;;;19.23;15.00;;;;;;;20.63;61.36;95089.38;4200577;28;20064;-55
2022/06/16 07:11:18;;;;;;;20.33;16.00;;;;;;;20.28;62.50;95084.31;4196218;28;20349;-55
2022/06/16 07:13:20;;;;;;;25.15;16.65;;;;;;;20.22;63.12;95090.50;4201929;28;20203;-54
2022/06/16 07:15:22;;;;;;;20.65;14.60;;;;;;;20.39;63.35;95083.69;4207602;28;20056;-57
2022/06/16 07:17:24;;;;;;;25.70;15.10;;;;;;;20.60;63.44;95087.91;4208854;28;20465;-55
2022/06/16 07:19:26;;;;;;;22.05;14.77;;;;;;;20.75;62.91;95086.84;4209739;28;20047;-55
2022/06/16 07:21:27;;;;;;;20.67;15.57;;;;;;;20.94;61.45;95085.91;4210526;28;20106;-55
2022/06/16 07:23:29;;;;;;;24.52;15.52;;;;;;;21.03;61.44;95087.28;4206723;28;20067;-54
2022/06/16 07:25:31;;;;;;;25.95;15.90;;;;;;;21.07;60.89;95087.66;4202366;28;20048;-55
2022/06/16 07:27:33;;;;;;;21.40;16.17;;;;;;;20.96;60.96;95083.84;4214166;28;20055;-54
2022/06/16 07:29:35;;;;;;;20.83;14.90;;;;;;;20.93;61.99;95084.28;4210569;28;20052;-54
2022/06/16 07:31:45;;;;;;;27.58;15.95;;;;;;;21.07;61.66;95087.66;4194609;28;20049;-56
2022/06/16 07:33:47;;;;;;;24.15;15.73;;;;;;;21.18;61.49;95086.16;4200946;28;20054;-56
2022/06/16 07:35:52;;;;;;;21.80;15.82;;;;;;;21.32;60.95;95081.56;4217219;28;20133;-57
2022/06/16 07:37:54;;;;;;;23.55;15.65;;;;;;;21.51;61.24;95083.31;4213659;28;20044;-55
2022/06/16 07:39:55;;;;;;;20.55;15.48;;;;;;;21.55;59.23;95083.66;4208059;28;20060;-57
2022/06/16 07:41:57;;;;;;;24.17;16.08;;;;;;;21.58;59.26;95075.25;4197120;28;20056;-56
2022/06/16 07:43:59;;;;;;;22.67;15.40;;;;;;;21.72;59.54;95074.06;4205945;28;20394;-54
2022/06/16 07:46:01;;;;;;;23.35;16.67;;;;;;;21.85;59.65;95083.81;4211614;28;20048;-56
2022/06/16 07:48:05;;;;;;;24.98;16.45;;;;;;;21.94;59.08;95071.84;4208380;28;20131;-55
2022/06/16 07:50:09;;;;;;;20.40;15.93;;;;;;;22.13;58.62;95069.97;4199616;28;20493;-55
2022/06/16 07:52:10;;;;;;;21.67;16.60;;;;;;;22.36;57.70;95074.69;4207669;28;20226;-57
2022/06/16 07:54:14;;;;;;;20.33;16.30;;;;;;;22.24;56.54;95073.78;4208236;28;20095;-55
2022/06/16 07:56:37;;;;;;;24.15;16.67;;;;;;;21.96;57.98;95072.44;4207775;28;20138;-55
2022/06/16 07:58:39;;;;;;;20.90;15.88;;;;;;;22.02;57.82;95078.72;4199188;28;20048;-56
2022/06/16 08:00:41;;;;;;;19.10;15.25;;;;;;;22.23;57.66;95080.16;4214352;28;20527;-55
2022/06/16 08:02:42;;;;;;;23.67;16.92;;;;;;;22.55;57.08;95083.50;4205910;28;20117;-55
2022/06/16 08:04:44;;;;;;;21.55;15.27;;;;;;;22.71;56.95;95079.38;4208225;28;20055;-56
2022/06/16 08:06:46;;;;;;;18.90;16.20;;;;;;;22.98;56.73;95076.38;4214988;28;20438;-55
2022/06/16 08:08:49;;;;;;;20.92;16.45;;;;;;;23.24;56.03;95076.00;4208633;28;20453;-56
2022/06/16 08:10:51;;;;;;;20.55;15.25;;;;;;;23.44;54.62;95073.00;4201716;28;20048;-58
2022/06/16 08:12:54;;;;;;;27.08;17.33;;;;;;;23.11;53.70;95078.88;4213287;28;20360;-61
2022/06/16 08:14:55;;;;;;;20.77;16.67;;;;;;;22.68;55.07;95077.16;4210756;28;20500;-55
2022/06/16 08:16:58;;;;;;;21.75;16.83;;;;;;;22.33;55.32;95079.63;4201834;28;20368;-56
2022/06/16 08:19:00;;;;;;;21.10;16.40;;;;;;;21.85;56.41;95081.13;4216794;28;20048;-55
2022/06/16 08:21:02;;;;;;;21.67;17.02;;;;;;;21.73;57.02;95090.91;4215829;28;20128;-57
2022/06/16 08:23:04;;;;;;;24.63;18.58;;;;;;;21.97;56.73;95084.72;4212846;28;20047;-55
2022/06/16 08:25:07;;;;;;;21.85;16.33;;;;;;;22.25;55.26;95094.09;4210918;28;20416;-54
2022/06/16 08:27:09;;;;;;;21.15;16.45;;;;;;;22.53;55.54;95085.56;4214309;28;20502;-54
2022/06/16 08:29:13;;;;;;;25.48;17.00;;;;;;;22.83;54.73;95079.44;4227925;28;20043;-57
2022/06/16 08:31:17;;;;;;;20.38;15.68;;;;;;;23.10;53.72;95077.22;4201588;28;20048;-54
2022/06/16 08:33:19;;;;;;;23.45;15.57;;;;;;;23.22;54.25;95083.44;4210927;28;20051;-55
2022/06/16 08:35:21;;;;;;;20.60;16.20;;;;;;;23.29;53.50;95073.44;4196410;28;20469;-55
2022/06/16 08:37:24;;;;;;;20.20;16.05;;;;;;;23.20;52.66;95080.16;4203220;28;20127;-58
2022/06/16 08:39:25;;;;;;;18.17;14.63;;;;;;;23.08;52.61;95081.97;4208532;28;20102;-57
2022/06/16 08:41:47;;;;;;;18.88;13.95;;;;;;;22.83;52.76;95085.59;4205284;28;20110;-56
2022/06/16 08:44:11;;;;;;;20.70;15.38;;;;;;;22.78;54.03;95079.28;4199819;28;20075;-56
2022/06/16 08:46:16;;;;;;;17.88;13.82;;;;;;;22.80;53.34;95080.72;4205500;28;20185;-53
2022/06/16 08:48:33;;;;;;;18.25;15.02;;;;;;;22.81;53.25;95078.84;4193617;28;20057;-56
2022/06/16 08:50:59;;;;;;;19.98;15.00;;;;;;;22.89;53.28;95079.34;4194353;28;20052;-56
2022/06/16 08:53:13;;;;;;;18.85;14.50;;;;;;;22.97;52.92;95078.19;4205157;28;20892;-57
2022/06/16 08:55:15;;;;;;;;;;;;;;;23.06;52.76;95078.75;4190077;28;20061;-55
2022/06/16 08:57:38;;;;;;;17.77;15.27;;;;;;;23.11;52.64;95068.19;4206752;28;19920;-55
2022/06/16 08:59:44;;;;;;;18.67;13.90;;;;;;;23.21;52.46;95072.97;4205890;28;20051;-56
2022/06/16 09:02:19;;;;;;;16.63;14.75;;;;;;;23.25;52.25;95061.59;4214218;28;20058;-55
2022/06/16 09:04:50;;;;;;;18.08;15.35;;;;;;;23.30;52.14;95068.94;4215716;28;20077;-56
2022/06/16 09:07:04;;;;;;;18.25;14.57;;;;;;;23.37;51.15;95071.50;4212712;28;20109;-54
2022/06/16 09:12:05;;;;;;;17.25;14.05;;;;;;;23.47;51.13;95069.09;4201846;28;20045;-56
2022/06/16 09:15:10;;;;;;;21.02;16.35;;;;;;;23.70;51.40;95074.47;4208687;28;20048;-55
2022/06/16 09:16:54;;;;;;;19.38;14.50;;;;;;;23.82;50.44;95062.97;4217287;28;20052;-56
2022/06/16 09:19:18;;;;;;;19.88;15.43;;;;;;;24.12;49.35;95070.88;4207239;28;20181;-56
2022/06/16 09:21:30;;;;;;;16.52;13.82;;;;;;;24.28;48.39;95059.41;4197854;28;20044;-57
2022/06/16 09:23:40;;;;;;;17.33;13.82;;;;;;;24.34;48.46;95060.34;4211135;28;20105;-55
2022/06/16 09:25:50;;;;;;;17.88;14.07;;;;;;;24.24;48.83;95057.44;4212043;28;20087;-55
2022/06/16 09:27:56;;;;;;;18.20;14.07;;;;;;;24.23;48.85;95053.16;4211313;28;20105;-55
2022/06/16 09:30:08;;;;;;;18.88;13.52;;;;;;;24.06;47.83;95051.19;4208840;28;20052;-56
2022/06/16 09:32:15;;;;;;;15.17;13.57;;;;;;;23.83;48.89;95052.03;4219206;28;20056;-54
2022/06/16 09:34:50;;;;;;;18.95;14.07;;;;;;;23.79;48.76;95055.38;4192262;28;20052;-57
2022/06/16 09:36:56;;;;;;;18.73;14.57;;;;;;;23.94;48.37;95049.56;4205770;28;20153;-55
2022/06/16 09:39:03;;;;;;;16.00;12.88;;;;;;;24.01;47.47;95048.41;4208251;28;20117;-54
2022/06/16 09:44:13;;;;;;;14.57;12.93;;;;;;;23.75;47.67;95044.34;4199117;28;20059;-55
2022/06/16 09:46:22;;;;;;;20.30;12.77;;;;;;;23.79;47.78;95037.50;4209426;28;20206;-56
2022/06/16 09:48:49;;;;;;;19.23;13.40;;;;;;;24.18;47.54;95045.84;4208960;28;20051;-55
2022/06/16 09:50:55;;;;;;;15.55;12.90;;;;;;;24.57;46.30;95030.03;4198648;28;20060;-55
2022/06/16 09:53:42;;;;;;;14.77;11.52;;;;;;;24.70;44.75;95034.31;4210603;28;20063;-56
2022/06/16 09:55:51;;;;;;;12.73;11.02;;;;;;;24.46;44.33;95022.84;4169796;28;20049;-54
2022/06/16 09:57:56;;;;;;;15.60;12.30;;;;;;;24.52;45.17;95028.09;4194794;28;20052;-58
2022/06/16 10:00:15;;;;;;;13.32;11.65;;;;;;;24.63;45.46;95022.91;4201230;28;20530;-56
2022/06/16 10:02:54;;;;;;;13.75;12.10;;;;;;;24.93;44.90;95030.72;4209926;28;20052;-54
2022/06/16 10:04:56;;;;;;;13.73;12.23;;;;;;;25.25;44.55;95033.72;4190160;28;20169;-55
2022/06/16 10:07:34;;;;;;;13.63;11.98;;;;;;;25.48;44.68;95030.03;4218872;28;20124;-58
2022/06/16 10:09:45;;;;;;;15.13;12.00;;;;;;;25.59;43.72;95028.34;4206470;28;20040;-56
2022/06/16 10:12:28;;;;;;;12.85;11.38;;;;;;;25.74;43.14;95022.38;4209832;28;20047;-57
2022/06/16 10:14:49;;;;;;;12.80;10.77;;;;;;;25.92;43.22;95016.78;4201866;28;20138;-57